Time;durP1;ratioP1;P1;durP2;ratioP2;P2;SDS_P1;SDS_P2;PMS_P1;PMS_P2;Temp;Humidity;BMP_temperature;BMP_pressure;BME280_temperature;BME280_humidity;BME280_pressure;Samples;Min_cycle;Max_cycle;Signal;HPM_P1;HPM_P2
2021/09/16 00:00:54;;;;;;;17.10;15.70;;;21.20;99.90;;;;;;5072541;28;20454;-64
2021/09/16 00:03:21;;;;;;;21.17;19.23;;;21.20;99.90;;;;;;5072892;28;20470;-64
2021/09/16 00:05:49;;;;;;;27.00;24.10;;;21.20;99.90;;;;;;5067145;28;20501;-63
2021/09/16 00:08:16;;;;;;;36.83;33.43;;;21.20;99.90;;;;;;5072638;28;20463;-64
2021/09/16 00:10:42;;;;;;;45.33;41.10;;;21.30;99.90;;;;;;5072154;28;20472;-64
2021/09/16 00:13:09;;;;;;;28.67;26.07;;;21.20;99.90;;;;;;5072581;28;20966;-64
2021/09/16 00:15:37;;;;;;;18.10;16.50;;;21.20;99.90;;;;;;5071714;28;20469;-64
2021/09/16 00:18:04;;;;;;;12.87;11.60;;;21.30;99.90;;;;;;5072489;28;20943;-61
2021/09/16 00:20:32;;;;;;;12.03;11.13;;;21.20;99.90;;;;;;5071739;28;20485;-62
2021/09/16 00:23:01;;;;;;;18.90;17.20;;;21.30;99.90;;;;;;5079233;28;20457;-62
2021/09/16 00:25:28;;;;;;;30.90;27.93;;;21.20;99.90;;;;;;5069112;28;20477;-62
2021/09/16 00:27:55;;;;;;;34.23;30.77;;;21.20;99.90;;;;;;5072227;28;20461;-63
2021/09/16 00:30:22;;;;;;;34.20;30.80;;;21.30;99.90;;;;;;5068218;28;20478;-63
2021/09/16 00:32:48;;;;;;;28.03;25.17;;;21.30;99.90;;;;;;5071860;28;20466;-62
2021/09/16 00:35:15;;;;;;;26.23;23.53;;;21.30;99.90;;;;;;5072484;28;20515;-63
2021/09/16 00:37:42;;;;;;;21.30;19.30;;;21.20;99.90;;;;;;5072178;28;20472;-64
2021/09/16 00:40:12;;;;;;;29.23;26.73;;;21.20;99.90;;;;;;5071917;28;20462;-63
2021/09/16 00:42:40;;;;;;;32.87;29.57;;;21.20;99.90;;;;;;5071486;28;20463;-63
2021/09/16 00:45:07;;;;;;;23.10;20.97;;;21.30;99.90;;;;;;5072394;28;20940;-63
2021/09/16 00:47:34;;;;;;;24.43;22.20;;;21.20;99.90;;;;;;5072146;28;20469;-64
2021/09/16 00:50:01;;;;;;;17.43;15.83;;;21.20;99.90;;;;;;5072152;28;20827;-64
2021/09/16 00:52:29;;;;;;;34.80;31.60;;;21.20;99.90;;;;;;5072258;28;20810;-63
2021/09/16 00:54:57;;;;;;;27.73;24.73;;;21.20;99.90;;;;;;5072127;28;20464;-63
2021/09/16 00:57:26;;;;;;;32.83;29.77;;;21.20;99.90;;;;;;5072234;28;20812;-63
2021/09/16 00:59:55;;;;;;;27.63;24.97;;;21.20;99.90;;;;;;5072891;28;20967;-63
2021/09/16 01:02:22;;;;;;;20.40;18.60;;;21.20;99.90;;;;;;5072358;28;20470;-63
2021/09/16 01:04:48;;;;;;;22.00;19.90;;;21.20;99.90;;;;;;5071637;28;20470;-63
2021/09/16 01:07:15;;;;;;;21.80;19.83;;;21.20;99.90;;;;;;5059825;28;20471;-63
2021/09/16 01:09:43;;;;;;;21.03;19.17;;;21.20;99.90;;;;;;5071902;28;20474;-63
2021/09/16 01:12:11;;;;;;;19.27;17.57;;;21.20;99.90;;;;;;5071952;28;20472;-63
2021/09/16 01:14:39;;;;;;;19.37;17.57;;;21.20;99.90;;;;;;5071776;28;20952;-63
2021/09/16 01:17:06;;;;;;;16.10;14.80;;;21.20;99.90;;;;;;5072079;28;20477;-64
2021/09/16 01:19:33;;;;;;;17.47;15.87;;;21.20;99.90;;;;;;5072077;28;20470;-63
2021/09/16 01:22:00;;;;;;;22.53;20.53;;;21.20;99.90;;;;;;5070920;28;20457;-63
2021/09/16 01:24:28;;;;;;;22.90;20.77;;;21.20;99.90;;;;;;5066600;28;20466;-63
2021/09/16 01:26:55;;;;;;;19.10;17.33;;;21.10;99.90;;;;;;5071512;28;21932;-63
2021/09/16 01:29:22;;;;;;;25.37;23.07;;;21.10;99.90;;;;;;5071967;28;20960;-64
2021/09/16 01:31:52;;;;;;;25.50;22.90;;;21.20;99.90;;;;;;5066970;28;21714;-63
2021/09/16 01:34:19;;;;;;;25.17;22.67;;;21.10;99.90;;;;;;5072285;28;20462;-63
2021/09/16 01:36:48;;;;;;;22.70;20.67;;;21.10;99.90;;;;;;5071409;28;20549;-64
2021/09/16 01:39:17;;;;;;;17.70;16.20;;;21.10;99.90;;;;;;5071870;28;20476;-63
2021/09/16 01:41:46;;;;;;;14.53;13.30;;;21.10;99.90;;;;;;5071474;28;20466;-63
2021/09/16 01:44:13;;;;;;;14.87;13.47;;;21.10;99.90;;;;;;5072110;28;20807;-63
2021/09/16 01:46:40;;;;;;;15.43;14.03;;;21.10;99.90;;;;;;5071396;28;20467;-62
2021/09/16 01:49:07;;;;;;;16.33;14.93;;;21.10;99.90;;;;;;5071811;28;20822;-63
2021/09/16 01:51:35;;;;;;;19.40;17.80;;;21.10;99.90;;;;;;5071959;28;20466;-63
2021/09/16 01:54:02;;;;;;;16.90;15.37;;;21.00;99.90;;;;;;5074327;28;20807;-62
2021/09/16 01:56:29;;;;;;;27.27;24.77;;;21.00;99.90;;;;;;5075162;28;20458;-62
2021/09/16 01:58:57;;;;;;;29.90;27.03;;;21.10;99.90;;;;;;5077074;28;20472;-63
2021/09/16 02:01:25;;;;;;;20.17;18.47;;;21.00;99.90;;;;;;5075304;28;20480;-62
2021/09/16 02:03:53;;;;;;;25.77;23.30;;;20.90;99.90;;;;;;5074861;28;20466;-63
2021/09/16 02:06:20;;;;;;;26.40;23.60;;;20.90;99.90;;;;;;5074990;28;20477;-63
2021/09/16 02:08:47;;;;;;;24.40;22.03;;;21.00;99.90;;;;;;5074574;28;20471;-62
2021/09/16 02:11:13;;;;;;;18.63;16.90;;;20.90;99.90;;;;;;5074540;28;20466;-63
2021/09/16 02:13:41;;;;;;;19.63;17.83;;;21.00;99.90;;;;;;5074764;28;20488;-63
2021/09/16 02:16:09;;;;;;;17.87;16.30;;;20.90;99.90;;;;;;5074615;28;20473;-62
2021/09/16 02:18:36;;;;;;;17.53;16.03;;;20.90;99.90;;;;;;5074918;28;20470;-62
2021/09/16 02:21:03;;;;;;;20.50;18.73;;;20.90;99.90;;;;;;5074427;28;20477;-63
2021/09/16 02:23:30;;;;;;;20.30;18.57;;;20.90;99.90;;;;;;5081272;28;20476;-63
2021/09/16 02:25:57;;;;;;;18.97;17.27;;;20.90;99.90;;;;;;5074188;28;20904;-63
2021/09/16 02:28:24;;;;;;;16.17;14.70;;;20.90;99.90;;;;;;5074838;28;20466;-63
2021/09/16 02:30:50;;;;;;;16.07;14.77;;;20.80;99.90;;;;;;5074188;28;20482;-63
2021/09/16 02:33:19;;;;;;;13.87;12.57;;;20.90;99.90;;;;;;5074571;28;20481;-62
2021/09/16 02:35:51;;;;;;;14.27;13.03;;;20.90;99.90;;;;;;5074224;28;20811;-63
2021/09/16 02:38:18;;;;;;;14.97;13.57;;;20.80;99.90;;;;;;5074576;28;20458;-63
2021/09/16 02:40:45;;;;;;;16.90;15.30;;;20.80;99.90;;;;;;5074294;28;20458;-63
2021/09/16 02:43:12;;;;;;;22.57;20.50;;;20.80;99.90;;;;;;5074400;28;21000;-63
2021/09/16 02:45:39;;;;;;;18.07;16.50;;;20.80;99.90;;;;;;5074497;28;20466;-63
2021/09/16 02:48:06;;;;;;;20.60;18.50;;;20.80;99.90;;;;;;5074130;28;20458;-63
2021/09/16 02:50:34;;;;;;;19.37;17.27;;;20.80;99.90;;;;;;5074446;28;20470;-63
2021/09/16 02:53:01;;;;;;;17.00;15.50;;;20.70;99.90;;;;;;5062333;28;25692;-62
2021/09/16 02:55:28;;;;;;;51.50;45.07;;;20.70;99.90;;;;;;5073331;28;20990;-63
2021/09/16 02:57:55;;;;;;;26.37;23.70;;;20.70;99.90;;;;;;5072172;28;20462;-62
2021/09/16 03:00:22;;;;;;;18.97;17.33;;;20.70;99.90;;;;;;5072207;28;20476;-63
2021/09/16 03:02:49;;;;;;;17.27;15.77;;;20.70;99.90;;;;;;5072019;28;20476;-63
2021/09/16 03:05:15;;;;;;;14.33;13.00;;;20.70;99.90;;;;;;5072348;28;20466;-63
2021/09/16 03:07:44;;;;;;;15.13;13.73;;;20.70;99.90;;;;;;5071758;28;21139;-63
2021/09/16 03:10:13;;;;;;;15.20;13.63;;;20.70;99.90;;;;;;5072361;28;20470;-63
2021/09/16 03:12:40;;;;;;;14.20;13.00;;;20.70;99.90;;;;;;5073254;28;20809;-63
2021/09/16 03:15:08;;;;;;;15.20;13.90;;;20.70;99.90;;;;;;5073612;28;20476;-63
2021/09/16 03:17:34;;;;;;;14.30;13.07;;;20.60;99.90;;;;;;5073893;28;20474;-63
2021/09/16 03:20:01;;;;;;;14.80;13.20;;;20.70;99.90;;;;;;5073495;28;20960;-62
2021/09/16 03:22:28;;;;;;;14.40;13.10;;;20.60;99.90;;;;;;5073760;28;20477;-63
2021/09/16 03:24:56;;;;;;;14.40;13.10;;;20.60;99.90;;;;;;5073443;28;20475;-63
2021/09/16 03:27:23;;;;;;;17.43;15.50;;;20.60;99.90;;;;;;5073598;28;20482;-63
2021/09/16 03:29:50;;;;;;;17.53;15.87;;;20.60;99.90;;;;;;5073025;28;20478;-63
2021/09/16 03:32:17;;;;;;;18.03;16.33;;;20.60;99.90;;;;;;5073830;28;20465;-63
2021/09/16 03:34:43;;;;;;;15.13;13.73;;;20.60;99.90;;;;;;5073558;28;20470;-63
2021/09/16 03:37:10;;;;;;;19.30;17.40;;;20.60;99.90;;;;;;5073245;28;20465;-63
2021/09/16 03:39:37;;;;;;;17.77;16.17;;;20.60;99.90;;;;;;5073406;28;20470;-63
2021/09/16 03:42:06;;;;;;;14.70;13.40;;;20.60;99.90;;;;;;5073034;28;20484;-63
2021/09/16 03:44:33;;;;;;;18.60;16.70;;;20.50;99.90;;;;;;5073537;28;20470;-63
2021/09/16 03:47:00;;;;;;;16.50;14.87;;;20.60;99.90;;;;;;5072974;28;20470;-63
2021/09/16 03:49:26;;;;;;;15.87;14.37;;;20.50;99.90;;;;;;5059963;28;20486;-63
2021/09/16 03:51:53;;;;;;;17.17;15.67;;;20.50;99.90;;;;;;5072918;28;20474;-63
2021/09/16 03:54:21;;;;;;;18.57;16.73;;;20.50;99.90;;;;;;5073379;28;20469;-63
2021/09/16 03:56:48;;;;;;;19.27;17.47;;;20.50;99.90;;;;;;5072795;28;20454;-63
2021/09/16 03:59:16;;;;;;;20.97;18.87;;;20.50;99.90;;;;;;5073085;28;20470;-63
2021/09/16 04:01:43;;;;;;;24.47;21.87;;;20.50;99.90;;;;;;5073107;28;20473;-63
2021/09/16 04:04:10;;;;;;;22.97;20.77;;;20.50;99.90;;;;;;5061562;28;20467;-63
2021/09/16 04:06:36;;;;;;;25.83;22.40;;;20.50;99.90;;;;;;5073135;28;20480;-63
2021/09/16 04:09:04;;;;;;;24.50;21.30;;;20.50;99.90;;;;;;5072373;28;20837;-63
2021/09/16 04:11:31;;;;;;;24.03;21.50;;;20.50;99.90;;;;;;5073064;28;20462;-63
2021/09/16 04:13:57;;;;;;;29.27;26.37;;;20.50;99.90;;;;;;5072249;28;20486;-63
2021/09/16 04:16:26;;;;;;;26.67;24.03;;;20.50;99.90;;;;;;5071881;28;20462;-63
2021/09/16 04:18:52;;;;;;;30.97;27.57;;;20.40;99.90;;;;;;5072510;28;20965;-63
2021/09/16 04:21:19;;;;;;;32.13;28.80;;;20.50;99.90;;;;;;5072909;28;20476;-63
2021/09/16 04:23:46;;;;;;;31.00;25.70;;;20.40;99.90;;;;;;5072602;28;20477;-63
2021/09/16 04:26:14;;;;;;;30.13;24.33;;;20.40;99.90;;;;;;5072409;28;20777;-63
2021/09/16 04:28:41;;;;;;;29.00;25.90;;;20.40;99.90;;;;;;5072520;28;20471;-64
2021/09/16 04:31:07;;;;;;;27.93;24.90;;;20.40;99.90;;;;;;5072415;28;20476;-63
2021/09/16 04:33:36;;;;;;;26.30;23.57;;;20.40;99.90;;;;;;5072603;28;20490;-63
2021/09/16 04:36:05;;;;;;;23.20;20.80;;;20.30;99.90;;;;;;5071965;28;20467;-63
2021/09/16 04:38:32;;;;;;;24.57;21.93;;;20.30;99.90;;;;;;5072444;28;20553;-63
2021/09/16 04:40:59;;;;;;;27.37;24.57;;;20.30;99.90;;;;;;5072265;28;20474;-63
2021/09/16 04:43:25;;;;;;;27.87;24.87;;;20.40;99.90;;;;;;5072534;28;20480;-64
2021/09/16 04:45:52;;;;;;;27.10;23.57;;;20.30;99.90;;;;;;5072160;28;20478;-63
2021/09/16 04:48:19;;;;;;;29.20;26.30;;;20.40;99.90;;;;;;5072512;28;20472;-63
2021/09/16 04:50:47;;;;;;;25.23;22.73;;;20.40;99.90;;;;;;5072276;28;20494;-63
2021/09/16 04:53:14;;;;;;;28.20;25.07;;;20.40;99.90;;;;;;5072091;28;20466;-63
2021/09/16 04:55:41;;;;;;;24.73;22.17;;;20.40;99.90;;;;;;5072406;28;20462;-63
2021/09/16 04:58:08;;;;;;;24.93;22.43;;;20.40;99.90;;;;;;5071892;28;20475;-63
2021/09/16 05:00:35;;;;;;;22.80;20.60;;;20.30;99.90;;;;;;5072306;28;21062;-63
2021/09/16 05:03:02;;;;;;;24.40;20.90;;;20.30;99.90;;;;;;5071833;28;20466;-63
2021/09/16 05:05:29;;;;;;;24.80;22.30;;;20.30;99.90;;;;;;5072193;28;20474;-63
2021/09/16 05:07:57;;;;;;;20.73;18.73;;;20.30;99.90;;;;;;5071999;28;20808;-63
2021/09/16 05:10:24;;;;;;;21.97;19.73;;;20.30;99.90;;;;;;5071937;28;20478;-64
2021/09/16 05:12:50;;;;;;;23.13;20.70;;;20.30;99.90;;;;;;5071877;28;20480;-63
2021/09/16 05:15:17;;;;;;;24.80;21.80;;;20.30;99.90;;;;;;5071603;28;21243;-64
2021/09/16 05:17:44;;;;;;;21.93;19.80;;;20.30;99.90;;;;;;5072259;28;20462;-63
2021/09/16 05:20:12;;;;;;;21.70;19.37;;;20.30;99.90;;;;;;5071723;28;20470;-63
2021/09/16 05:22:39;;;;;;;21.27;18.67;;;20.30;99.90;;;;;;5072075;28;20466;-64
2021/09/16 05:25:08;;;;;;;21.73;19.63;;;20.30;99.90;;;;;;5071702;28;20477;-63
2021/09/16 05:27:35;;;;;;;19.63;17.73;;;20.30;99.90;;;;;;5065858;28;20813;-63
2021/09/16 05:30:02;;;;;;;19.20;17.30;;;20.30;99.90;;;;;;5075544;28;20471;-64
2021/09/16 05:32:29;;;;;;;18.30;16.60;;;20.30;99.90;;;;;;5075893;28;20467;-64
2021/09/16 05:34:56;;;;;;;17.63;16.07;;;20.30;99.90;;;;;;5075423;28;20555;-63
2021/09/16 05:37:24;;;;;;;21.00;18.83;;;20.30;99.90;;;;;;5075818;28;20493;-63
2021/09/16 05:39:52;;;;;;;21.17;19.00;;;20.30;99.90;;;;;;5075707;28;20489;-63
2021/09/16 05:42:20;;;;;;;19.23;17.20;;;20.30;99.90;;;;;;5075347;28;20473;-64
2021/09/16 05:44:47;;;;;;;15.80;14.30;;;20.30;99.90;;;;;;5075705;28;20553;-63
2021/09/16 05:47:14;;;;;;;19.10;17.10;;;20.20;99.90;;;;;;5075310;28;20475;-64
2021/09/16 05:49:41;;;;;;;18.03;16.20;;;20.20;99.90;;;;;;5075376;28;20474;-64
2021/09/16 05:52:08;;;;;;;18.97;17.03;;;20.20;99.90;;;;;;5075295;28;20466;-64
2021/09/16 05:54:35;;;;;;;18.50;16.60;;;20.30;99.90;;;;;;5075492;28;20474;-64
2021/09/16 05:57:01;;;;;;;17.20;15.50;;;20.20;99.90;;;;;;5075014;28;20551;-64
2021/09/16 05:59:30;;;;;;;14.27;12.97;;;20.20;99.90;;;;;;5075359;28;20474;-64
2021/09/16 06:01:57;;;;;;;15.93;14.43;;;20.20;99.90;;;;;;5071545;28;20470;-64
2021/09/16 06:04:24;;;;;;;14.73;12.40;;;20.20;99.90;;;;;;5075238;28;20494;-63
2021/09/16 06:06:51;;;;;;;11.93;10.83;;;20.20;99.90;;;;;;5075220;28;20474;-63
2021/09/16 06:09:17;;;;;;;11.00;9.93;;;20.20;99.90;;;;;;5074654;28;20625;-63
2021/09/16 06:11:44;;;;;;;11.07;10.07;;;20.20;99.90;;;;;;5075305;28;20983;-64
2021/09/16 06:14:11;;;;;;;9.90;9.00;;;20.20;99.90;;;;;;5074663;28;20470;-64
2021/09/16 06:16:39;;;;;;;8.40;7.70;;;20.20;99.90;;;;;;5075281;28;20992;-64
2021/09/16 06:19:06;;;;;;;11.20;9.90;;;20.30;99.90;;;;;;5074539;28;20490;-64
2021/09/16 06:21:33;;;;;;;11.30;10.30;;;20.20;99.90;;;;;;5074947;28;20499;-64
2021/09/16 06:24:00;;;;;;;13.00;11.60;;;20.20;99.90;;;;;;5071663;28;20512;-63
2021/09/16 06:26:27;;;;;;;11.97;10.77;;;20.20;99.90;;;;;;5075098;28;20490;-63
2021/09/16 06:28:54;;;;;;;10.53;9.53;;;20.20;99.90;;;;;;5074519;28;20498;-64
2021/09/16 06:31:20;;;;;;;10.70;9.70;;;20.20;99.90;;;;;;5074430;28;20600;-63
2021/09/16 06:33:49;;;;;;;11.53;10.53;;;20.20;99.90;;;;;;5061567;28;20462;-63
2021/09/16 06:36:15;;;;;;;10.70;9.70;;;20.20;99.90;;;;;;5074238;28;20502;-63
2021/09/16 06:38:42;;;;;;;11.50;10.40;;;20.20;99.90;;;;;;5074029;28;20494;-64
2021/09/16 06:41:09;;;;;;;12.47;11.47;;;20.30;99.90;;;;;;5074332;28;20498;-64
2021/09/16 06:43:36;;;;;;;13.40;11.30;;;20.30;99.90;;;;;;5074852;28;20490;-63
2021/09/16 06:46:03;;;;;;;10.20;9.23;;;20.30;99.90;;;;;;5074416;28;20486;-63
2021/09/16 06:48:30;;;;;;;11.23;10.23;;;20.40;99.90;;;;;;5074450;28;21013;-63
2021/09/16 06:50:58;;;;;;;10.53;9.70;;;20.40;99.90;;;;;;5074165;28;20980;-63
2021/09/16 06:53:25;;;;;;;9.30;8.50;;;20.40;99.90;;;;;;5074244;28;20490;-64
2021/09/16 06:55:52;;;;;;;9.77;8.87;;;20.50;99.90;;;;;;5074430;28;20494;-63
2021/09/16 06:58:19;;;;;;;9.83;9.00;;;20.40;99.90;;;;;;5073745;28;20864;-63
2021/09/16 07:00:45;;;;;;;11.00;10.00;;;20.40;99.90;;;;;;5074421;28;21005;-64
2021/09/16 07:03:12;;;;;;;10.90;10.00;;;20.40;99.90;;;;;;5066784;28;20949;-64
2021/09/16 07:05:39;;;;;;;9.03;8.20;;;20.40;99.90;;;;;;5069464;28;20497;-63
2021/09/16 07:08:07;;;;;;;8.33;7.43;;;20.40;99.90;;;;;;5073740;28;20490;-63
2021/09/16 07:10:34;;;;;;;9.67;8.77;;;20.40;99.90;;;;;;5074130;28;20494;-64
2021/09/16 07:13:01;;;;;;;7.97;7.20;;;20.50;99.90;;;;;;5073981;28;20489;-64
2021/09/16 07:15:28;;;;;;;9.13;8.10;;;20.40;99.90;;;;;;5073781;28;21224;-64
2021/09/16 07:17:55;;;;;;;9.53;8.70;;;20.50;99.90;;;;;;5074058;28;20501;-64
2021/09/16 07:20:22;;;;;;;10.27;9.27;;;20.50;99.90;;;;;;5073258;28;20505;-63
2021/09/16 07:22:49;;;;;;;7.53;6.93;;;20.50;99.90;;;;;;5073992;28;20868;-64
2021/09/16 07:25:17;;;;;;;10.70;9.70;;;20.50;99.90;;;;;;5073201;28;20490;-64
2021/09/16 07:27:44;;;;;;;9.20;8.37;;;20.50;99.90;;;;;;5073878;28;20585;-63
2021/09/16 07:30:12;;;;;;;8.60;7.70;;;20.50;99.90;;;;;;5073100;28;20512;-63
2021/09/16 07:32:39;;;;;;;9.13;8.23;;;20.50;99.90;;;;;;5073439;28;20489;-63
2021/09/16 07:35:07;;;;;;;10.97;9.10;;;20.60;99.90;;;;;;5073349;28;20524;-63
2021/09/16 07:37:34;;;;;;;9.17;8.23;;;20.60;99.90;;;;;;5073499;28;20826;-64
2021/09/16 07:40:01;;;;;;;9.33;8.53;;;20.60;99.90;;;;;;5073497;28;20884;-64
2021/09/16 07:42:29;;;;;;;7.77;7.10;;;20.60;99.90;;;;;;5073240;28;20459;-64
2021/09/16 07:44:56;;;;;;;8.50;7.73;;;20.60;99.90;;;;;;5073343;28;20979;-64
2021/09/16 07:47:23;;;;;;;8.10;7.30;;;20.60;99.90;;;;;;5072833;28;20494;-63
2021/09/16 07:49:50;;;;;;;10.47;6.57;;;20.70;99.90;;;;;;5072498;28;20505;-63
2021/09/16 07:52:17;;;;;;;7.93;7.17;;;20.70;99.90;;;;;;5072733;28;20474;-64
2021/09/16 07:54:44;;;;;;;7.63;6.97;;;20.70;99.90;;;;;;5073355;28;20490;-63
2021/09/16 07:57:11;;;;;;;7.50;6.90;;;20.70;99.90;;;;;;5072763;28;20490;-64
2021/09/16 07:59:39;;;;;;;7.77;6.77;;;20.70;99.90;;;;;;5072860;28;20509;-63
2021/09/16 08:02:06;;;;;;;8.00;5.60;;;20.80;99.90;;;;;;5073210;28;20529;-64
2021/09/16 08:04:33;;;;;;;6.43;5.83;;;20.80;99.90;;;;;;5072579;28;20489;-64
2021/09/16 08:07:00;;;;;;;7.00;6.50;;;20.80;99.90;;;;;;5072755;28;20494;-64
2021/09/16 08:09:26;;;;;;;8.67;7.27;;;20.80;99.90;;;;;;5072259;28;20505;-62
2021/09/16 08:11:53;;;;;;;6.40;5.80;;;20.80;99.90;;;;;;5073074;28;20486;-62
2021/09/16 08:14:20;;;;;;;6.63;6.03;;;20.80;99.90;;;;;;5072232;28;20486;-63
2021/09/16 08:16:48;;;;;;;6.80;5.73;;;20.90;99.90;;;;;;5073085;28;20497;-62
2021/09/16 08:19:15;;;;;;;5.60;5.00;;;20.90;99.90;;;;;;5072284;28;20494;-63
2021/09/16 08:21:42;;;;;;;5.73;4.93;;;20.90;99.90;;;;;;5072786;28;20509;-63
2021/09/16 08:24:09;;;;;;;7.13;4.20;;;21.00;99.90;;;;;;5072801;28;20458;-62
2021/09/16 08:26:36;;;;;;;6.20;4.43;;;21.00;99.90;;;;;;5072380;28;20520;-63
2021/09/16 08:29:03;;;;;;;4.50;4.20;;;21.00;99.90;;;;;;5072633;28;20980;-63
2021/09/16 08:31:30;;;;;;;8.50;4.57;;;21.00;99.90;;;;;;5072142;28;20991;-63
2021/09/16 08:33:58;;;;;;;4.50;4.10;;;21.00;99.90;;;;;;5072751;28;20512;-62
2021/09/16 08:36:25;;;;;;;4.20;3.63;;;21.00;99.90;;;;;;5072032;28;20498;-63
2021/09/16 08:38:52;;;;;;;3.37;3.17;;;21.00;99.90;;;;;;5072651;28;20494;-62
2021/09/16 08:41:19;;;;;;;3.50;3.20;;;21.00;99.90;;;;;;5071167;28;20491;-62
2021/09/16 08:43:48;;;;;;;4.23;3.87;;;21.00;99.90;;;;;;5072670;28;20473;-62
2021/09/16 08:46:15;;;;;;;3.70;3.40;;;21.00;99.90;;;;;;5072165;28;20470;-63
2021/09/16 08:48:42;;;;;;;4.93;3.70;;;21.00;99.90;;;;;;5072511;28;20545;-63
2021/09/16 08:51:12;;;;;;;5.40;4.10;;;21.00;99.90;;;;;;5072356;28;20486;-63
2021/09/16 08:53:41;;;;;;;6.83;3.83;;;21.00;99.90;;;;;;5072271;28;20485;-62
2021/09/16 08:56:08;;;;;;;7.00;3.83;;;21.00;99.90;;;;;;5072243;28;20497;-63
2021/09/16 08:58:35;;;;;;;3.73;3.43;;;21.10;99.90;;;;;;5072157;28;20520;-63
2021/09/16 09:01:02;;;;;;;3.40;2.50;;;21.10;99.90;;;;;;5061525;28;20501;-63
2021/09/16 09:03:29;;;;;;;2.87;2.67;;;21.20;99.90;;;;;;5075904;28;20968;-63
2021/09/16 09:05:56;;;;;;;3.70;2.53;;;21.20;99.90;;;;;;5076342;28;20493;-63
2021/09/16 09:08:26;;;;;;;2.90;2.70;;;21.10;99.90;;;;;;5076067;28;20889;-63
2021/09/16 09:10:54;;;;;;;3.43;2.97;;;21.10;99.90;;;;;;5076346;28;20490;-62
2021/09/16 09:13:23;;;;;;;3.93;3.63;;;21.00;99.90;;;;;;5075953;28;20865;-63
2021/09/16 09:16:00;;;;;;;4.23;3.77;;;21.00;99.90;;;;;;5076358;28;20462;-63
2021/09/16 09:18:27;;;;;;;3.93;2.80;;;20.90;99.90;;;;;;5075908;28;20505;-63
2021/09/16 09:21:00;;;;;;;3.77;2.60;;;20.90;99.90;;;;;;5076204;28;20496;-63
2021/09/16 09:23:31;;;;;;;4.83;2.63;;;21.00;99.90;;;;;;5075783;28;20494;-62
2021/09/16 09:25:59;;;;;;;3.10;2.10;;;21.00;99.90;;;;;;5067462;28;20964;-62
2021/09/16 09:28:32;;;;;;;4.93;2.90;;;21.00;99.90;;;;;;5075506;28;20501;-63
2021/09/16 09:31:00;;;;;;;2.50;2.30;;;21.00;99.90;;;;;;5076008;28;20505;-63
2021/09/16 09:33:30;;;;;;;3.60;2.50;;;21.00;99.90;;;;;;5075440;28;20498;-63
2021/09/16 09:36:07;;;;;;;4.60;2.20;;;21.00;99.90;;;;;;5075901;28;20474;-63
2021/09/16 09:38:48;;;;;;;2.43;2.23;;;21.00;99.90;;;;;;5075511;28;20466;-63
2021/09/16 09:41:24;;;;;;;3.60;2.40;;;21.00;99.90;;;;;;5073561;28;20544;-63
2021/09/16 09:43:51;;;;;;;2.30;2.10;;;20.90;99.90;;;;;;5067691;28;20454;-63
2021/09/16 09:46:18;;;;;;;4.33;2.60;;;20.90;99.90;;;;;;5075967;28;20860;-63
2021/09/16 09:48:57;;;;;;;2.00;1.83;;;20.90;99.90;;;;;;5075297;28;20836;-63
2021/09/16 09:51:35;;;;;;;2.37;2.17;;;20.90;99.90;;;;;;5062804;28;20504;-65
2021/09/16 09:54:22;;;;;;;3.17;2.23;;;20.90;99.90;;;;;;5075972;28;20486;-63
2021/09/16 09:57:01;;;;;;;2.53;1.80;;;20.90;99.90;;;;;;5075506;28;20458;-63
2021/09/16 09:59:29;;;;;;;2.20;2.00;;;20.90;99.90;;;;;;5062763;28;20591;-63
2021/09/16 10:02:03;;;;;;;2.20;2.00;;;20.90;99.90;;;;;;5074960;28;20470;-63
2021/09/16 10:04:31;;;;;;;2.60;1.40;;;20.90;99.90;;;;;;5066175;28;20473;-63
2021/09/16 10:06:59;;;;;;;5.13;2.23;;;21.00;99.90;;;;;;5074899;28;20473;-63
2021/09/16 10:09:28;;;;;;;2.70;1.60;;;21.00;99.90;;;;;;5075412;28;20462;-63
2021/09/16 10:11:57;;;;;;;2.30;1.37;;;21.00;99.90;;;;;;5074696;28;20470;-63
2021/09/16 10:14:24;;;;;;;3.03;1.20;;;21.00;99.90;;;;;;5074227;28;20995;-63
2021/09/16 10:16:51;;;;;;;2.97;2.40;;;21.10;99.90;;;;;;5074819;28;20505;-63
2021/09/16 10:19:18;;;;;;;3.57;1.97;;;21.10;99.90;;;;;;5072845;28;20518;-63
2021/09/16 10:21:45;;;;;;;2.23;1.90;;;21.10;99.90;;;;;;5071646;28;20486;-62
2021/09/16 10:24:16;;;;;;;2.63;2.00;;;21.10;99.90;;;;;;5074580;28;20459;-63
2021/09/16 10:26:49;;;;;;;3.33;1.60;;;21.20;99.90;;;;;;5074898;28;20968;-63
2021/09/16 10:29:36;;;;;;;2.27;1.30;;;21.20;99.90;;;;;;5074541;28;20477;-64
2021/09/16 10:32:38;;;;;;;2.80;1.20;;;21.20;99.90;;;;;;5062191;28;20478;-63
2021/09/16 10:35:20;;;;;;;3.90;2.47;;;21.20;99.90;;;;;;5074454;28;20500;-63
2021/09/16 10:37:47;;;;;;;2.43;1.60;;;21.20;99.90;;;;;;5074839;28;20490;-64
2021/09/16 10:40:27;;;;;;;3.50;3.20;;;21.20;99.90;;;;;;5073971;28;20956;-63
2021/09/16 10:42:58;;;;;;;2.50;2.30;;;21.20;99.90;;;;;;5074245;28;20494;-63
2021/09/16 10:45:30;;;;;;;1.60;1.50;;;21.20;99.90;;;;;;5074706;28;20980;-63
2021/09/16 10:48:32;;;;;;;1.80;1.57;;;21.20;99.90;;;;;;5074192;28;20490;-64
2021/09/16 10:51:05;;;;;;;2.93;2.33;;;21.20;99.90;;;;;;5012293;28;20473;-63
2021/09/16 10:53:40;;;;;;;4.53;3.33;;;21.20;99.90;;;;;;5012724;28;20504;-64
2021/09/16 10:56:27;;;;;;;4.73;3.80;;;21.20;99.90;;;;;;5046248;28;20481;-64
2021/09/16 10:58:57;;;;;;;3.93;3.30;;;21.10;99.90;;;;;;5073718;28;20829;-63
2021/09/16 11:01:58;;;;;;;5.50;2.97;;;21.10;99.90;;;;;;5074582;28;20547;-63
2021/09/16 11:04:25;;;;;;;2.70;2.50;;;21.10;99.90;;;;;;5070794;28;20516;-62
2021/09/16 11:06:52;;;;;;;4.83;4.27;;;21.00;99.90;;;;;;5074314;28;20490;-62
2021/09/16 11:09:27;;;;;;;4.90;2.57;;;21.00;99.90;;;;;;5060363;28;20478;-63
2021/09/16 11:12:00;;;;;;;3.27;2.93;;;21.00;99.90;;;;;;5074154;28;20498;-63
2021/09/16 11:14:37;;;;;;;6.83;3.50;;;21.00;99.90;;;;;;5073874;28;20524;-62
2021/09/16 11:17:06;;;;;;;3.50;2.87;;;20.90;99.90;;;;;;5073805;28;20490;-63
2021/09/16 11:19:33;;;;;;;3.50;3.23;;;20.90;99.90;;;;;;5073997;28;20509;-63
2021/09/16 11:22:06;;;;;;;6.40;5.00;;;20.90;99.90;;;;;;5073664;28;20494;-63
2021/09/16 11:24:36;;;;;;;4.40;4.00;;;20.90;99.90;;;;;;5073484;28;21273;-63
2021/09/16 11:27:04;;;;;;;3.00;2.70;;;20.90;99.90;;;;;;5060595;28;20497;-65
2021/09/16 11:29:45;;;;;;;3.27;2.77;;;20.90;99.90;;;;;;5073229;28;20482;-62
2021/09/16 11:32:12;;;;;;;4.20;3.13;;;20.90;99.90;;;;;;5073212;28;20489;-63
2021/09/16 11:34:52;;;;;;;10.10;9.00;;;20.90;99.90;;;;;;5073805;28;20853;-63
2021/09/16 11:37:22;;;;;;;4.47;3.30;;;20.90;99.90;;;;;;5073187;28;20535;-64
2021/09/16 11:40:01;;;;;;;4.80;4.40;;;20.90;99.90;;;;;;5073512;28;20964;-61
2021/09/16 11:42:33;;;;;;;2.83;2.60;;;20.90;99.90;;;;;;5073064;28;20494;-63
2021/09/16 11:45:14;;;;;;;4.93;2.50;;;20.90;99.90;;;;;;5060959;28;20494;-62
2021/09/16 11:47:45;;;;;;;21.40;19.23;;;20.90;99.90;;;;;;5073271;28;21824;-62
2021/09/16 11:50:28;;;;;;;5.77;4.13;;;20.90;99.90;;;;;;5073299;28;20490;-63
2021/09/16 11:52:57;;;;;;;3.23;2.77;;;21.00;99.90;;;;;;5073513;28;20956;-64
2021/09/16 11:55:25;;;;;;;3.50;3.17;;;21.00;99.90;;;;;;5073007;28;20474;-63
2021/09/16 11:58:06;;;;;;;2.37;2.17;;;21.00;99.90;;;;;;5073159;28;20497;-63
2021/09/16 12:00:39;;;;;;;4.20;3.40;;;21.00;99.90;;;;;;5073063;28;20478;-63
2021/09/16 12:03:07;;;;;;;4.20;3.33;;;21.00;99.90;;;;;;5072931;28;20846;-63
2021/09/16 12:05:37;;;;;;;6.83;5.00;;;21.10;99.90;;;;;;5072755;28;20454;-63
2021/09/16 12:08:05;;;;;;;6.33;2.90;;;21.10;99.90;;;;;;5073133;28;20976;-63
2021/09/16 12:10:44;;;;;;;8.03;7.10;;;21.10;99.90;;;;;;5072584;28;20489;-63
2021/09/16 12:13:15;;;;;;;2.80;2.60;;;21.10;99.90;;;;;;5064909;28;20859;-63
2021/09/16 12:15:44;;;;;;;3.13;2.10;;;21.10;99.90;;;;;;5065095;28;20528;-63
2021/09/16 12:18:11;;;;;;;3.03;2.50;;;21.10;99.90;;;;;;5069208;28;20494;-63
2021/09/16 12:20:41;;;;;;;3.60;2.20;;;21.20;99.90;;;;;;5070625;28;21029;-63
2021/09/16 12:23:10;;;;;;;2.10;1.60;;;21.20;99.90;;;;;;5070675;28;20466;-63
2021/09/16 12:26:15;;;;;;;2.93;1.20;;;21.20;99.90;;;;;;5070725;28;20478;-63
2021/09/16 12:29:01;;;;;;;2.63;2.20;;;21.10;99.90;;;;;;5039602;28;20460;-63
2021/09/16 12:31:32;;;;;;;3.93;2.90;;;21.10;99.90;;;;;;5070202;28;20466;-63
2021/09/16 12:34:01;;;;;;;7.60;4.50;;;21.10;99.90;;;;;;5071032;28;20490;-63
2021/09/16 12:36:29;;;;;;;4.70;3.60;;;21.10;99.90;;;;;;5069776;28;20553;-63
2021/09/16 12:39:04;;;;;;;3.73;3.33;;;21.10;99.90;;;;;;5070654;28;20529;-63
2021/09/16 12:41:34;;;;;;;4.77;2.90;;;21.10;99.90;;;;;;5070429;28;20498;-64
2021/09/16 12:44:07;;;;;;;2.30;1.87;;;21.10;99.90;;;;;;5070020;28;20486;-64